sensor_id;sensor_type;location;lat;lon;timestamp;P1;durP1;ratioP1;P2;durP2;ratioP2
63567;SDS011;49715;42.386;20.434;2022-09-09T00:04:34;7.72;;;6.43;;
63567;SDS011;49715;42.386;20.434;2022-09-09T00:15:02;8.00;;;6.30;;
63567;SDS011;49715;42.386;20.434;2022-09-09T00:17:38;7.65;;;6.15;;
63567;SDS011;49715;42.386;20.434;2022-09-09T00:20:13;11.73;;;7.82;;
63567;SDS011;49715;42.386;20.434;2022-09-09T00:22:46;8.45;;;7.40;;
63567;SDS011;49715;42.386;20.434;2022-09-09T00:25:23;10.13;;;8.60;;
63567;SDS011;49715;42.386;20.434;2022-09-09T00:27:56;10.15;;;8.07;;
63567;SDS011;49715;42.386;20.434;2022-09-09T00:30:24;13.52;;;9.13;;
63567;SDS011;49715;42.386;20.434;2022-09-09T00:32:53;14.02;;;9.40;;
63567;SDS011;49715;42.386;20.434;2022-09-09T00:35:29;13.55;;;9.60;;
63567;SDS011;49715;42.386;20.434;2022-09-09T00:43:55;7.75;;;6.78;;
63567;SDS011;49715;42.386;20.434;2022-09-09T00:52:12;7.75;;;6.95;;
63567;SDS011;49715;42.386;20.434;2022-09-09T00:57:34;11.00;;;7.30;;
63567;SDS011;49715;42.386;20.434;2022-09-09T01:05:27;13.73;;;9.35;;
63567;SDS011;49715;42.386;20.434;2022-09-09T01:07:55;12.25;;;9.32;;
63567;SDS011;49715;42.386;20.434;2022-09-09T01:13:26;11.75;;;9.02;;
63567;SDS011;49715;42.386;20.434;2022-09-09T01:15:58;10.52;;;7.60;;
63567;SDS011;49715;42.386;20.434;2022-09-09T01:18:27;9.73;;;7.32;;
63567;SDS011;49715;42.386;20.434;2022-09-09T01:26:54;7.15;;;5.95;;
63567;SDS011;49715;42.386;20.434;2022-09-09T01:29:26;7.35;;;6.65;;
63567;SDS011;49715;42.386;20.434;2022-09-09T01:34:24;9.13;;;7.05;;
63567;SDS011;49715;42.386;20.434;2022-09-09T01:39:35;10.60;;;7.28;;
63567;SDS011;49715;42.386;20.434;2022-09-09T01:42:08;9.30;;;7.70;;
63567;SDS011;49715;42.386;20.434;2022-09-09T01:44:37;10.43;;;7.07;;
63567;SDS011;49715;42.386;20.434;2022-09-09T01:47:04;8.10;;;6.93;;
63567;SDS011;49715;42.386;20.434;2022-09-09T01:49:32;9.88;;;6.97;;
63567;SDS011;49715;42.386;20.434;2022-09-09T01:52:03;10.93;;;7.63;;
63567;SDS011;49715;42.386;20.434;2022-09-09T01:54:34;11.07;;;8.07;;
63567;SDS011;49715;42.386;20.434;2022-09-09T01:57:15;8.77;;;7.18;;
63567;SDS011;49715;42.386;20.434;2022-09-09T02:05:18;15.73;;;11.30;;
63567;SDS011;49715;42.386;20.434;2022-09-09T02:08:17;17.85;;;13.80;;
63567;SDS011;49715;42.386;20.434;2022-09-09T02:13:36;9.25;;;7.22;;
63567;SDS011;49715;42.386;20.434;2022-09-09T02:16:08;10.00;;;6.57;;
63567;SDS011;49715;42.386;20.434;2022-09-09T02:18:51;9.20;;;5.78;;
63567;SDS011;49715;42.386;20.434;2022-09-09T02:21:44;7.32;;;6.30;;
63567;SDS011;49715;42.386;20.434;2022-09-09T02:24:12;6.43;;;5.00;;
63567;SDS011;49715;42.386;20.434;2022-09-09T02:26:49;6.77;;;5.90;;
63567;SDS011;49715;42.386;20.434;2022-09-09T02:29:20;6.45;;;5.85;;
63567;SDS011;49715;42.386;20.434;2022-09-09T02:31:51;6.38;;;5.38;;
63567;SDS011;49715;42.386;20.434;2022-09-09T02:34:25;6.35;;;5.60;;
63567;SDS011;49715;42.386;20.434;2022-09-09T02:36:54;7.10;;;5.95;;
63567;SDS011;49715;42.386;20.434;2022-09-09T02:39:23;7.40;;;6.50;;
63567;SDS011;49715;42.386;20.434;2022-09-09T02:41:51;8.75;;;7.07;;
63567;SDS011;49715;42.386;20.434;2022-09-09T02:44:27;9.50;;;5.57;;
63567;SDS011;49715;42.386;20.434;2022-09-09T02:47:13;7.05;;;6.25;;
63567;SDS011;49715;42.386;20.434;2022-09-09T02:58:07;7.53;;;5.95;;
63567;SDS011;49715;42.386;20.434;2022-09-09T03:00:38;6.30;;;5.70;;
63567;SDS011;49715;42.386;20.434;2022-09-09T03:03:07;6.45;;;5.85;;
63567;SDS011;49715;42.386;20.434;2022-09-09T03:05:36;10.27;;;6.00;;
63567;SDS011;49715;42.386;20.434;2022-09-09T03:08:04;6.82;;;6.07;;
63567;SDS011;49715;42.386;20.434;2022-09-09T03:10:35;6.13;;;5.53;;
63567;SDS011;49715;42.386;20.434;2022-09-09T03:13:03;7.65;;;6.45;;
63567;SDS011;49715;42.386;20.434;2022-09-09T03:15:34;7.53;;;6.68;;
63567;SDS011;49715;42.386;20.434;2022-09-09T03:18:03;8.68;;;7.00;;
63567;SDS011;49715;42.386;20.434;2022-09-09T03:20:29;9.32;;;7.57;;
63567;SDS011;49715;42.386;20.434;2022-09-09T03:22:57;8.25;;;6.70;;
63567;SDS011;49715;42.386;20.434;2022-09-09T03:25:25;7.07;;;6.35;;
63567;SDS011;49715;42.386;20.434;2022-09-09T03:27:53;9.38;;;7.20;;
63567;SDS011;49715;42.386;20.434;2022-09-09T03:30:25;8.65;;;6.75;;
63567;SDS011;49715;42.386;20.434;2022-09-09T03:32:54;9.00;;;6.90;;
63567;SDS011;49715;42.386;20.434;2022-09-09T03:35:23;10.55;;;6.93;;
63567;SDS011;49715;42.386;20.434;2022-09-09T03:37:49;23.80;;;14.63;;
63567;SDS011;49715;42.386;20.434;2022-09-09T03:40:16;12.35;;;7.80;;
63567;SDS011;49715;42.386;20.434;2022-09-09T03:42:47;8.63;;;5.93;;
63567;SDS011;49715;42.386;20.434;2022-09-09T03:45:16;8.60;;;5.80;;
63567;SDS011;49715;42.386;20.434;2022-09-09T03:47:43;13.07;;;7.50;;
63567;SDS011;49715;42.386;20.434;2022-09-09T03:50:09;17.08;;;7.88;;
63567;SDS011;49715;42.386;20.434;2022-09-09T03:52:41;21.45;;;7.60;;
63567;SDS011;49715;42.386;20.434;2022-09-09T03:55:15;15.40;;;8.48;;
63567;SDS011;49715;42.386;20.434;2022-09-09T03:57:41;22.20;;;10.23;;
63567;SDS011;49715;42.386;20.434;2022-09-09T04:00:09;18.15;;;10.60;;
63567;SDS011;49715;42.386;20.434;2022-09-09T04:02:49;19.02;;;13.10;;
63567;SDS011;49715;42.386;20.434;2022-09-09T04:05:19;12.43;;;10.30;;
63567;SDS011;49715;42.386;20.434;2022-09-09T04:07:47;8.35;;;7.10;;
63567;SDS011;49715;42.386;20.434;2022-09-09T04:10:14;12.73;;;6.97;;
63567;SDS011;49715;42.386;20.434;2022-09-09T04:12:42;6.88;;;6.18;;
63567;SDS011;49715;42.386;20.434;2022-09-09T04:15:09;8.80;;;6.97;;
63567;SDS011;49715;42.386;20.434;2022-09-09T04:17:37;11.18;;;7.93;;
63567;SDS011;49715;42.386;20.434;2022-09-09T04:20:04;17.27;;;9.90;;
63567;SDS011;49715;42.386;20.434;2022-09-09T04:22:32;20.20;;;8.65;;
63567;SDS011;49715;42.386;20.434;2022-09-09T04:25:00;16.63;;;8.77;;
63567;SDS011;49715;42.386;20.434;2022-09-09T04:27:28;22.35;;;10.15;;
63567;SDS011;49715;42.386;20.434;2022-09-09T04:29:55;22.60;;;9.65;;
63567;SDS011;49715;42.386;20.434;2022-09-09T04:32:26;38.38;;;14.57;;
63567;SDS011;49715;42.386;20.434;2022-09-09T04:34:56;32.65;;;12.02;;
63567;SDS011;49715;42.386;20.434;2022-09-09T04:37:23;26.23;;;10.88;;
63567;SDS011;49715;42.386;20.434;2022-09-09T04:39:51;23.20;;;11.05;;
63567;SDS011;49715;42.386;20.434;2022-09-09T04:42:17;44.08;;;15.05;;
63567;SDS011;49715;42.386;20.434;2022-09-09T04:44:46;27.40;;;15.30;;
63567;SDS011;49715;42.386;20.434;2022-09-09T04:47:12;27.35;;;12.02;;
63567;SDS011;49715;42.386;20.434;2022-09-09T04:49:39;21.98;;;11.68;;
63567;SDS011;49715;42.386;20.434;2022-09-09T04:52:06;14.55;;;10.18;;
63567;SDS011;49715;42.386;20.434;2022-09-09T04:54:35;15.15;;;10.15;;
63567;SDS011;49715;42.386;20.434;2022-09-09T04:57:01;13.90;;;8.70;;
63567;SDS011;49715;42.386;20.434;2022-09-09T04:59:28;12.80;;;9.15;;
63567;SDS011;49715;42.386;20.434;2022-09-09T05:01:57;13.27;;;9.18;;
63567;SDS011;49715;42.386;20.434;2022-09-09T05:04:23;10.18;;;8.48;;
63567;SDS011;49715;42.386;20.434;2022-09-09T05:06:50;13.50;;;9.25;;
63567;SDS011;49715;42.386;20.434;2022-09-09T05:09:16;10.55;;;8.32;;
63567;SDS011;49715;42.386;20.434;2022-09-09T05:11:44;12.93;;;8.80;;
63567;SDS011;49715;42.386;20.434;2022-09-09T05:14:17;10.93;;;8.15;;
63567;SDS011;49715;42.386;20.434;2022-09-09T05:16:44;13.70;;;9.00;;
63567;SDS011;49715;42.386;20.434;2022-09-09T05:19:11;56.55;;;41.72;;
63567;SDS011;49715;42.386;20.434;2022-09-09T05:21:47;18.40;;;13.23;;
63567;SDS011;49715;42.386;20.434;2022-09-09T05:24:16;17.27;;;9.52;;
63567;SDS011;49715;42.386;20.434;2022-09-09T05:26:46;15.23;;;10.35;;
63567;SDS011;49715;42.386;20.434;2022-09-09T05:29:12;25.35;;;18.00;;
63567;SDS011;49715;42.386;20.434;2022-09-09T05:31:39;17.45;;;10.50;;
63567;SDS011;49715;42.386;20.434;2022-09-09T05:34:09;13.15;;;8.23;;
63567;SDS011;49715;42.386;20.434;2022-09-09T05:36:37;16.30;;;8.38;;
63567;SDS011;49715;42.386;20.434;2022-09-09T05:41:54;15.00;;;8.65;;
63567;SDS011;49715;42.386;20.434;2022-09-09T05:44:21;17.40;;;11.95;;
63567;SDS011;49715;42.386;20.434;2022-09-09T05:46:53;16.73;;;9.32;;
63567;SDS011;49715;42.386;20.434;2022-09-09T05:49:21;20.52;;;10.07;;
63567;SDS011;49715;42.386;20.434;2022-09-09T05:51:49;19.95;;;8.88;;
63567;SDS011;49715;42.386;20.434;2022-09-09T05:54:18;19.15;;;9.35;;
63567;SDS011;49715;42.386;20.434;2022-09-09T05:56:54;18.55;;;9.82;;
63567;SDS011;49715;42.386;20.434;2022-09-09T05:59:20;24.75;;;13.15;;
63567;SDS011;49715;42.386;20.434;2022-09-09T06:01:50;29.27;;;17.27;;
63567;SDS011;49715;42.386;20.434;2022-09-09T06:04:25;31.50;;;18.83;;
63567;SDS011;49715;42.386;20.434;2022-09-09T06:06:52;41.50;;;23.23;;
63567;SDS011;49715;42.386;20.434;2022-09-09T06:09:21;51.45;;;28.17;;
63567;SDS011;49715;42.386;20.434;2022-09-09T06:11:48;63.22;;;33.08;;
63567;SDS011;49715;42.386;20.434;2022-09-09T06:16:45;49.47;;;25.13;;
63567;SDS011;49715;42.386;20.434;2022-09-09T06:19:19;41.70;;;23.23;;
63567;SDS011;49715;42.386;20.434;2022-09-09T06:21:47;28.23;;;14.80;;
63567;SDS011;49715;42.386;20.434;2022-09-09T06:24:15;21.45;;;12.80;;
63567;SDS011;49715;42.386;20.434;2022-09-09T06:26:44;18.08;;;10.35;;
63567;SDS011;49715;42.386;20.434;2022-09-09T06:29:13;18.42;;;9.05;;
63567;SDS011;49715;42.386;20.434;2022-09-09T06:31:42;14.50;;;9.43;;
63567;SDS011;49715;42.386;20.434;2022-09-09T06:34:22;19.77;;;11.15;;
63567;SDS011;49715;42.386;20.434;2022-09-09T06:36:53;27.23;;;12.00;;
63567;SDS011;49715;42.386;20.434;2022-09-09T06:39:21;19.63;;;10.35;;
63567;SDS011;49715;42.386;20.434;2022-09-09T06:41:47;26.65;;;15.95;;
63567;SDS011;49715;42.386;20.434;2022-09-09T06:44:40;17.33;;;12.07;;
63567;SDS011;49715;42.386;20.434;2022-09-09T06:47:12;18.20;;;11.00;;
63567;SDS011;49715;42.386;20.434;2022-09-09T06:49:40;13.38;;;9.20;;
63567;SDS011;49715;42.386;20.434;2022-09-09T06:52:09;12.75;;;8.63;;
63567;SDS011;49715;42.386;20.434;2022-09-09T06:54:36;16.30;;;11.88;;
63567;SDS011;49715;42.386;20.434;2022-09-09T06:57:04;19.58;;;11.43;;
63567;SDS011;49715;42.386;20.434;2022-09-09T06:59:34;15.73;;;10.27;;
63567;SDS011;49715;42.386;20.434;2022-09-09T07:02:00;16.90;;;10.93;;
63567;SDS011;49715;42.386;20.434;2022-09-09T07:04:28;16.45;;;10.65;;
63567;SDS011;49715;42.386;20.434;2022-09-09T07:06:54;22.08;;;13.55;;
63567;SDS011;49715;42.386;20.434;2022-09-09T07:09:23;21.38;;;13.07;;
63567;SDS011;49715;42.386;20.434;2022-09-09T07:11:52;18.20;;;12.43;;
63567;SDS011;49715;42.386;20.434;2022-09-09T07:14:20;23.65;;;13.60;;
63567;SDS011;49715;42.386;20.434;2022-09-09T07:16:53;18.40;;;13.27;;
63567;SDS011;49715;42.386;20.434;2022-09-09T07:19:20;19.58;;;11.52;;
63567;SDS011;49715;42.386;20.434;2022-09-09T07:21:50;29.45;;;14.20;;
63567;SDS011;49715;42.386;20.434;2022-09-09T07:24:19;30.13;;;15.23;;
63567;SDS011;49715;42.386;20.434;2022-09-09T07:26:46;17.48;;;11.18;;
63567;SDS011;49715;42.386;20.434;2022-09-09T07:29:13;15.95;;;10.68;;
63567;SDS011;49715;42.386;20.434;2022-09-09T07:31:41;15.77;;;11.18;;
63567;SDS011;49715;42.386;20.434;2022-09-09T07:34:14;19.65;;;12.48;;
63567;SDS011;49715;42.386;20.434;2022-09-09T07:36:40;24.13;;;14.30;;
63567;SDS011;49715;42.386;20.434;2022-09-09T07:39:12;22.35;;;12.73;;
63567;SDS011;49715;42.386;20.434;2022-09-09T07:41:43;16.80;;;11.80;;
63567;SDS011;49715;42.386;20.434;2022-09-09T07:44:13;22.17;;;13.23;;
63567;SDS011;49715;42.386;20.434;2022-09-09T07:46:44;21.73;;;14.52;;
63567;SDS011;49715;42.386;20.434;2022-09-09T07:49:14;24.70;;;14.68;;
63567;SDS011;49715;42.386;20.434;2022-09-09T07:51:42;22.08;;;13.13;;
63567;SDS011;49715;42.386;20.434;2022-09-09T07:54:14;21.48;;;13.90;;
63567;SDS011;49715;42.386;20.434;2022-09-09T07:56:44;15.57;;;11.70;;
63567;SDS011;49715;42.386;20.434;2022-09-09T07:59:12;23.67;;;14.75;;
63567;SDS011;49715;42.386;20.434;2022-09-09T08:01:47;25.90;;;15.63;;
63567;SDS011;49715;42.386;20.434;2022-09-09T08:04:24;40.70;;;17.60;;
63567;SDS011;49715;42.386;20.434;2022-09-09T08:06:56;20.38;;;15.07;;
63567;SDS011;49715;42.386;20.434;2022-09-09T08:09:26;24.83;;;14.32;;
63567;SDS011;49715;42.386;20.434;2022-09-09T08:12:00;27.65;;;15.13;;
63567;SDS011;49715;42.386;20.434;2022-09-09T08:14:28;24.00;;;13.75;;
63567;SDS011;49715;42.386;20.434;2022-09-09T08:16:56;18.73;;;14.65;;
63567;SDS011;49715;42.386;20.434;2022-09-09T08:19:26;22.88;;;14.15;;
63567;SDS011;49715;42.386;20.434;2022-09-09T08:21:56;19.50;;;14.40;;
63567;SDS011;49715;42.386;20.434;2022-09-09T08:24:22;17.98;;;12.75;;
63567;SDS011;49715;42.386;20.434;2022-09-09T08:26:53;20.60;;;13.60;;
63567;SDS011;49715;42.386;20.434;2022-09-09T08:29:23;18.40;;;12.80;;
63567;SDS011;49715;42.386;20.434;2022-09-09T08:31:51;18.52;;;12.90;;
63567;SDS011;49715;42.386;20.434;2022-09-09T08:34:21;26.42;;;16.73;;
63567;SDS011;49715;42.386;20.434;2022-09-09T08:36:50;22.27;;;15.55;;
63567;SDS011;49715;42.386;20.434;2022-09-09T08:39:23;20.90;;;14.73;;
63567;SDS011;49715;42.386;20.434;2022-09-09T08:42:01;21.30;;;13.25;;
63567;SDS011;49715;42.386;20.434;2022-09-09T08:50:34;20.05;;;14.60;;
63567;SDS011;49715;42.386;20.434;2022-09-09T08:56:24;21.67;;;16.90;;
63567;SDS011;49715;42.386;20.434;2022-09-09T08:58:55;24.38;;;18.83;;
63567;SDS011;49715;42.386;20.434;2022-09-09T09:04:42;21.83;;;15.13;;
63567;SDS011;49715;42.386;20.434;2022-09-09T09:12:58;19.00;;;12.70;;
63567;SDS011;49715;42.386;20.434;2022-09-09T09:15:32;16.88;;;12.63;;
63567;SDS011;49715;42.386;20.434;2022-09-09T09:18:04;18.08;;;12.45;;
63567;SDS011;49715;42.386;20.434;2022-09-09T09:20:36;20.75;;;13.40;;
63567;SDS011;49715;42.386;20.434;2022-09-09T09:23:34;16.15;;;12.13;;
63567;SDS011;49715;42.386;20.434;2022-09-09T09:26:14;15.70;;;12.23;;
63567;SDS011;49715;42.386;20.434;2022-09-09T09:28:42;21.58;;;14.02;;
63567;SDS011;49715;42.386;20.434;2022-09-09T09:31:14;20.35;;;13.52;;
63567;SDS011;49715;42.386;20.434;2022-09-09T09:36:15;22.35;;;14.57;;
63567;SDS011;49715;42.386;20.434;2022-09-09T09:41:31;20.60;;;14.02;;
63567;SDS011;49715;42.386;20.434;2022-09-09T09:44:27;21.77;;;14.35;;
63567;SDS011;49715;42.386;20.434;2022-09-09T09:47:07;18.63;;;13.82;;
63567;SDS011;49715;42.386;20.434;2022-09-09T09:50:00;19.58;;;14.75;;
63567;SDS011;49715;42.386;20.434;2022-09-09T09:52:32;20.88;;;16.25;;
63567;SDS011;49715;42.386;20.434;2022-09-09T09:55:02;24.83;;;17.88;;
63567;SDS011;49715;42.386;20.434;2022-09-09T09:57:33;23.38;;;16.15;;
63567;SDS011;49715;42.386;20.434;2022-09-09T10:02:49;21.75;;;15.15;;
63567;SDS011;49715;42.386;20.434;2022-09-09T10:05:23;19.60;;;14.80;;
63567;SDS011;49715;42.386;20.434;2022-09-09T10:08:08;19.77;;;13.90;;
63567;SDS011;49715;42.386;20.434;2022-09-09T10:19:13;20.80;;;14.43;;
63567;SDS011;49715;42.386;20.434;2022-09-09T10:40:26;16.70;;;12.75;;
63567;SDS011;49715;42.386;20.434;2022-09-09T10:43:20;16.45;;;11.77;;
63567;SDS011;49715;42.386;20.434;2022-09-09T10:49:10;16.10;;;12.32;;
63567;SDS011;49715;42.386;20.434;2022-09-09T10:54:15;16.05;;;12.70;;
63567;SDS011;49715;42.386;20.434;2022-09-09T10:57:11;15.35;;;12.32;;
63567;SDS011;49715;42.386;20.434;2022-09-09T10:59:44;16.58;;;11.40;;
63567;SDS011;49715;42.386;20.434;2022-09-09T11:02:27;15.05;;;12.38;;
63567;SDS011;49715;42.386;20.434;2022-09-09T11:04:57;13.38;;;11.95;;
63567;SDS011;49715;42.386;20.434;2022-09-09T11:07:49;16.27;;;11.35;;
63567;SDS011;49715;42.386;20.434;2022-09-09T11:13:16;12.25;;;10.70;;
63567;SDS011;49715;42.386;20.434;2022-09-09T11:15:49;13.18;;;9.30;;
63567;SDS011;49715;42.386;20.434;2022-09-09T11:18:21;13.68;;;9.93;;
63567;SDS011;49715;42.386;20.434;2022-09-09T11:20:51;11.27;;;9.20;;
63567;SDS011;49715;42.386;20.434;2022-09-09T11:23:27;10.35;;;7.90;;
63567;SDS011;49715;42.386;20.434;2022-09-09T11:26:08;10.27;;;7.45;;
63567;SDS011;49715;42.386;20.434;2022-09-09T11:39:43;13.68;;;9.55;;
63567;SDS011;49715;42.386;20.434;2022-09-09T11:44:38;9.57;;;5.55;;
63567;SDS011;49715;42.386;20.434;2022-09-09T11:47:15;7.82;;;5.20;;
63567;SDS011;49715;42.386;20.434;2022-09-09T11:49:45;6.20;;;5.10;;
63567;SDS011;49715;42.386;20.434;2022-09-09T11:52:22;4.82;;;4.32;;
63567;SDS011;49715;42.386;20.434;2022-09-09T11:55:08;5.50;;;4.60;;
63567;SDS011;49715;42.386;20.434;2022-09-09T11:57:38;5.97;;;4.93;;
63567;SDS011;49715;42.386;20.434;2022-09-09T12:02:47;4.75;;;3.95;;
63567;SDS011;49715;42.386;20.434;2022-09-09T12:05:17;6.03;;;4.03;;
63567;SDS011;49715;42.386;20.434;2022-09-09T12:07:56;4.25;;;3.83;;
63567;SDS011;49715;42.386;20.434;2022-09-09T12:10:31;4.10;;;3.28;;
63567;SDS011;49715;42.386;20.434;2022-09-09T12:13:20;7.38;;;3.53;;
63567;SDS011;49715;42.386;20.434;2022-09-09T12:15:49;5.63;;;3.20;;
63567;SDS011;49715;42.386;20.434;2022-09-09T12:21:06;6.20;;;3.63;;
63567;SDS011;49715;42.386;20.434;2022-09-09T12:23:40;4.22;;;3.40;;
63567;SDS011;49715;42.386;20.434;2022-09-09T12:26:16;4.90;;;3.78;;
63567;SDS011;49715;42.386;20.434;2022-09-09T12:34:29;5.38;;;3.60;;
63567;SDS011;49715;42.386;20.434;2022-09-09T12:37:06;4.38;;;3.83;;
63567;SDS011;49715;42.386;20.434;2022-09-09T12:39:45;6.35;;;3.58;;
63567;SDS011;49715;42.386;20.434;2022-09-09T12:42:18;5.20;;;4.20;;
63567;SDS011;49715;42.386;20.434;2022-09-09T12:44:52;7.43;;;4.82;;
63567;SDS011;49715;42.386;20.434;2022-09-09T12:47:21;4.72;;;4.07;;
63567;SDS011;49715;42.386;20.434;2022-09-09T12:49:55;7.32;;;5.10;;
63567;SDS011;49715;42.386;20.434;2022-09-09T12:52:32;6.35;;;4.80;;
63567;SDS011;49715;42.386;20.434;2022-09-09T12:55:03;6.15;;;4.50;;
63567;SDS011;49715;42.386;20.434;2022-09-09T12:57:35;7.53;;;5.03;;
63567;SDS011;49715;42.386;20.434;2022-09-09T13:00:07;7.05;;;5.50;;
63567;SDS011;49715;42.386;20.434;2022-09-09T13:02:50;7.05;;;5.93;;
63567;SDS011;49715;42.386;20.434;2022-09-09T13:05:24;6.72;;;5.95;;
63567;SDS011;49715;42.386;20.434;2022-09-09T13:08:01;7.65;;;5.28;;
63567;SDS011;49715;42.386;20.434;2022-09-09T13:10:32;5.82;;;4.75;;
63567;SDS011;49715;42.386;20.434;2022-09-09T13:13:01;4.88;;;4.25;;
63567;SDS011;49715;42.386;20.434;2022-09-09T13:15:29;6.80;;;4.28;;
63567;SDS011;49715;42.386;20.434;2022-09-09T13:17:57;4.88;;;4.05;;
63567;SDS011;49715;42.386;20.434;2022-09-09T13:20:26;4.90;;;4.07;;
63567;SDS011;49715;42.386;20.434;2022-09-09T13:22:54;6.88;;;4.65;;
63567;SDS011;49715;42.386;20.434;2022-09-09T13:25:25;7.75;;;4.70;;
63567;SDS011;49715;42.386;20.434;2022-09-09T13:27:55;7.20;;;4.35;;
63567;SDS011;49715;42.386;20.434;2022-09-09T13:30:35;4.78;;;3.92;;
63567;SDS011;49715;42.386;20.434;2022-09-09T13:35:35;7.35;;;4.20;;
63567;SDS011;49715;42.386;20.434;2022-09-09T13:38:15;8.32;;;4.40;;
63567;SDS011;49715;42.386;20.434;2022-09-09T13:40:55;6.10;;;4.43;;
63567;SDS011;49715;42.386;20.434;2022-09-09T13:43:35;6.97;;;4.20;;
63567;SDS011;49715;42.386;20.434;2022-09-09T13:46:05;4.95;;;4.03;;
63567;SDS011;49715;42.386;20.434;2022-09-09T13:51:41;11.63;;;6.28;;
63567;SDS011;49715;42.386;20.434;2022-09-09T13:54:10;8.25;;;6.35;;
63567;SDS011;49715;42.386;20.434;2022-09-09T13:56:38;11.38;;;6.18;;
63567;SDS011;49715;42.386;20.434;2022-09-09T13:59:09;8.90;;;6.53;;
63567;SDS011;49715;42.386;20.434;2022-09-09T14:01:40;12.40;;;6.85;;
63567;SDS011;49715;42.386;20.434;2022-09-09T14:04:07;11.20;;;6.60;;
63567;SDS011;49715;42.386;20.434;2022-09-09T14:06:35;8.95;;;6.65;;
63567;SDS011;49715;42.386;20.434;2022-09-09T14:09:06;10.90;;;6.00;;
63567;SDS011;49715;42.386;20.434;2022-09-09T14:11:35;10.38;;;6.20;;
63567;SDS011;49715;42.386;20.434;2022-09-09T14:14:01;15.15;;;6.75;;
63567;SDS011;49715;42.386;20.434;2022-09-09T14:16:28;14.30;;;6.60;;
63567;SDS011;49715;42.386;20.434;2022-09-09T14:18:54;8.38;;;6.57;;
63567;SDS011;49715;42.386;20.434;2022-09-09T14:21:22;9.68;;;6.40;;
63567;SDS011;49715;42.386;20.434;2022-09-09T14:23:49;19.25;;;6.80;;
63567;SDS011;49715;42.386;20.434;2022-09-09T14:26:16;9.48;;;6.00;;
63567;SDS011;49715;42.386;20.434;2022-09-09T14:28:44;11.73;;;6.45;;
63567;SDS011;49715;42.386;20.434;2022-09-09T14:31:12;13.75;;;6.25;;
63567;SDS011;49715;42.386;20.434;2022-09-09T14:33:39;12.05;;;6.18;;
63567;SDS011;49715;42.386;20.434;2022-09-09T14:36:06;10.50;;;6.18;;
63567;SDS011;49715;42.386;20.434;2022-09-09T14:38:33;7.82;;;5.57;;
63567;SDS011;49715;42.386;20.434;2022-09-09T14:41:06;11.40;;;5.35;;
63567;SDS011;49715;42.386;20.434;2022-09-09T14:43:33;8.57;;;5.53;;
63567;SDS011;49715;42.386;20.434;2022-09-09T14:46:06;7.45;;;5.28;;
63567;SDS011;49715;42.386;20.434;2022-09-09T14:48:34;7.95;;;5.50;;
63567;SDS011;49715;42.386;20.434;2022-09-09T14:51:08;7.20;;;5.00;;
63567;SDS011;49715;42.386;20.434;2022-09-09T14:53:36;9.57;;;6.03;;
63567;SDS011;49715;42.386;20.434;2022-09-09T14:56:07;12.23;;;6.53;;
63567;SDS011;49715;42.386;20.434;2022-09-09T14:58:36;8.00;;;6.00;;
63567;SDS011;49715;42.386;20.434;2022-09-09T15:01:08;8.52;;;5.38;;
63567;SDS011;49715;42.386;20.434;2022-09-09T15:03:39;9.65;;;5.05;;
63567;SDS011;49715;42.386;20.434;2022-09-09T15:08:35;10.85;;;4.88;;
63567;SDS011;49715;42.386;20.434;2022-09-09T15:11:02;10.35;;;5.60;;
63567;SDS011;49715;42.386;20.434;2022-09-09T15:13:30;7.15;;;5.55;;
63567;SDS011;49715;42.386;20.434;2022-09-09T15:16:02;8.68;;;5.25;;
63567;SDS011;49715;42.386;20.434;2022-09-09T15:18:36;9.82;;;5.80;;
63567;SDS011;49715;42.386;20.434;2022-09-09T15:21:06;9.18;;;5.88;;
63567;SDS011;49715;42.386;20.434;2022-09-09T15:23:32;8.27;;;5.88;;
63567;SDS011;49715;42.386;20.434;2022-09-09T15:25:59;8.35;;;5.70;;
63567;SDS011;49715;42.386;20.434;2022-09-09T15:28:27;10.43;;;6.00;;
63567;SDS011;49715;42.386;20.434;2022-09-09T15:30:54;8.05;;;5.72;;
63567;SDS011;49715;42.386;20.434;2022-09-09T15:33:21;10.13;;;6.30;;
63567;SDS011;49715;42.386;20.434;2022-09-09T15:35:48;8.93;;;5.35;;
63567;SDS011;49715;42.386;20.434;2022-09-09T15:38:15;10.27;;;5.80;;
63567;SDS011;49715;42.386;20.434;2022-09-09T15:40:43;13.35;;;6.47;;
63567;SDS011;49715;42.386;20.434;2022-09-09T15:45:36;6.53;;;5.60;;
63567;SDS011;49715;42.386;20.434;2022-09-09T15:50:30;9.75;;;5.90;;
63567;SDS011;49715;42.386;20.434;2022-09-09T15:52:59;8.95;;;6.35;;
63567;SDS011;49715;42.386;20.434;2022-09-09T15:55:26;10.27;;;6.32;;
63567;SDS011;49715;42.386;20.434;2022-09-09T15:57:52;9.32;;;6.20;;
63567;SDS011;49715;42.386;20.434;2022-09-09T16:00:19;10.48;;;6.60;;
63567;SDS011;49715;42.386;20.434;2022-09-09T16:02:49;9.15;;;6.15;;
63567;SDS011;49715;42.386;20.434;2022-09-09T16:05:15;12.18;;;6.55;;
63567;SDS011;49715;42.386;20.434;2022-09-09T16:07:43;11.10;;;6.78;;
63567;SDS011;49715;42.386;20.434;2022-09-09T16:10:11;8.65;;;7.07;;
63567;SDS011;49715;42.386;20.434;2022-09-09T16:12:39;9.60;;;7.07;;
63567;SDS011;49715;42.386;20.434;2022-09-09T16:15:06;10.57;;;7.93;;
63567;SDS011;49715;42.386;20.434;2022-09-09T16:17:33;10.23;;;7.45;;
63567;SDS011;49715;42.386;20.434;2022-09-09T16:20:03;13.50;;;7.50;;
63567;SDS011;49715;42.386;20.434;2022-09-09T16:22:33;7.88;;;7.05;;
63567;SDS011;49715;42.386;20.434;2022-09-09T16:25:01;9.80;;;6.55;;
63567;SDS011;49715;42.386;20.434;2022-09-09T16:27:27;14.13;;;7.15;;
63567;SDS011;49715;42.386;20.434;2022-09-09T16:29:54;9.65;;;7.60;;
63567;SDS011;49715;42.386;20.434;2022-09-09T16:32:20;10.65;;;7.65;;
63567;SDS011;49715;42.386;20.434;2022-09-09T16:34:47;11.80;;;7.97;;
63567;SDS011;49715;42.386;20.434;2022-09-09T16:37:13;12.90;;;8.40;;
63567;SDS011;49715;42.386;20.434;2022-09-09T16:39:40;11.02;;;9.38;;
63567;SDS011;49715;42.386;20.434;2022-09-09T16:42:07;12.10;;;9.35;;
63567;SDS011;49715;42.386;20.434;2022-09-09T16:44:33;13.40;;;9.82;;
63567;SDS011;49715;42.386;20.434;2022-09-09T16:46:59;13.95;;;9.85;;
63567;SDS011;49715;42.386;20.434;2022-09-09T16:49:26;12.45;;;10.20;;
63567;SDS011;49715;42.386;20.434;2022-09-09T16:51:56;11.48;;;9.25;;
63567;SDS011;49715;42.386;20.434;2022-09-09T16:54:24;14.02;;;9.93;;
63567;SDS011;49715;42.386;20.434;2022-09-09T16:56:52;11.65;;;9.48;;
63567;SDS011;49715;42.386;20.434;2022-09-09T16:59:19;10.75;;;9.70;;
63567;SDS011;49715;42.386;20.434;2022-09-09T17:01:47;15.38;;;10.10;;
63567;SDS011;49715;42.386;20.434;2022-09-09T17:04:16;16.83;;;10.63;;
63567;SDS011;49715;42.386;20.434;2022-09-09T17:06:47;12.45;;;10.55;;
63567;SDS011;49715;42.386;20.434;2022-09-09T17:09:15;16.48;;;10.25;;
63567;SDS011;49715;42.386;20.434;2022-09-09T17:11:42;12.68;;;10.23;;
63567;SDS011;49715;42.386;20.434;2022-09-09T17:14:10;12.05;;;9.63;;
63567;SDS011;49715;42.386;20.434;2022-09-09T17:16:42;14.73;;;11.35;;
63567;SDS011;49715;42.386;20.434;2022-09-09T17:19:09;14.82;;;10.88;;
63567;SDS011;49715;42.386;20.434;2022-09-09T17:21:36;15.57;;;11.05;;
63567;SDS011;49715;42.386;20.434;2022-09-09T17:24:03;15.20;;;10.35;;
63567;SDS011;49715;42.386;20.434;2022-09-09T17:26:30;14.13;;;10.88;;
63567;SDS011;49715;42.386;20.434;2022-09-09T17:28:59;14.00;;;11.18;;